sensor_id;sensor_type;location;lat;lon;timestamp;temperature;humidity
53053;DHT22;38934;52.690;6.184;2022-10-16T00:02:20;12.00;99.90
53053;DHT22;38934;52.690;6.184;2022-10-16T00:04:46;11.90;99.90
53053;DHT22;38934;52.690;6.184;2022-10-16T00:07:11;12.00;99.90
53053;DHT22;38934;52.690;6.184;2022-10-16T00:09:37;11.90;99.90
53053;DHT22;38934;52.690;6.184;2022-10-16T00:12:12;11.50;99.90
53053;DHT22;38934;52.690;6.184;2022-10-16T00:14:42;11.90;99.90
53053;DHT22;38934;52.690;6.184;2022-10-16T00:17:10;11.90;99.90
53053;DHT22;38934;52.690;6.184;2022-10-16T00:19:35;11.90;99.90
53053;DHT22;38934;52.690;6.184;2022-10-16T00:22:07;13.00;99.90
53053;DHT22;38934;52.690;6.184;2022-10-16T00:24:39;12.00;99.90
53053;DHT22;38934;52.690;6.184;2022-10-16T00:27:04;12.00;99.90
53053;DHT22;38934;52.690;6.184;2022-10-16T00:32:07;12.00;99.90
53053;DHT22;38934;52.690;6.184;2022-10-16T00:34:32;12.10;99.90
53053;DHT22;38934;52.690;6.184;2022-10-16T00:39:32;12.10;99.90
53053;DHT22;38934;52.690;6.184;2022-10-16T00:41:57;12.10;99.90
53053;DHT22;38934;52.690;6.184;2022-10-16T00:47:11;12.10;99.90
53053;DHT22;38934;52.690;6.184;2022-10-16T00:49:38;12.20;99.90
53053;DHT22;38934;52.690;6.184;2022-10-16T00:52:04;12.90;99.90
53053;DHT22;38934;52.690;6.184;2022-10-16T00:54:31;13.20;99.90
53053;DHT22;38934;52.690;6.184;2022-10-16T00:57:04;12.20;99.90
53053;DHT22;38934;52.690;6.184;2022-10-16T00:59:37;12.20;99.90
53053;DHT22;38934;52.690;6.184;2022-10-16T01:02:19;12.20;99.90
53053;DHT22;38934;52.690;6.184;2022-10-16T01:04:46;12.30;99.90
53053;DHT22;38934;52.690;6.184;2022-10-16T01:17:45;12.30;99.90
53053;DHT22;38934;52.690;6.184;2022-10-16T01:20:14;12.30;99.90
53053;DHT22;38934;52.690;6.184;2022-10-16T01:22:44;13.00;99.90
53053;DHT22;38934;52.690;6.184;2022-10-16T01:28:13;12.30;99.90
53053;DHT22;38934;52.690;6.184;2022-10-16T01:30:40;12.30;99.90
53053;DHT22;38934;52.690;6.184;2022-10-16T01:35:54;12.30;99.90
53053;DHT22;38934;52.690;6.184;2022-10-16T01:38:32;12.30;99.90
53053;DHT22;38934;52.690;6.184;2022-10-16T01:41:00;12.30;99.90
53053;DHT22;38934;52.690;6.184;2022-10-16T01:43:27;12.30;99.90
53053;DHT22;38934;52.690;6.184;2022-10-16T01:45:54;12.30;99.90
53053;DHT22;38934;52.690;6.184;2022-10-16T01:48:20;12.90;99.90
53053;DHT22;38934;52.690;6.184;2022-10-16T01:51:08;12.30;99.90
53053;DHT22;38934;52.690;6.184;2022-10-16T01:53:37;12.30;99.90
53053;DHT22;38934;52.690;6.184;2022-10-16T01:56:03;12.30;99.90
53053;DHT22;38934;52.690;6.184;2022-10-16T01:58:33;12.30;99.90
53053;DHT22;38934;52.690;6.184;2022-10-16T02:01:01;12.20;99.90
53053;DHT22;38934;52.690;6.184;2022-10-16T02:03:27;12.30;99.90
53053;DHT22;38934;52.690;6.184;2022-10-16T02:05:54;12.30;99.90
53053;DHT22;38934;52.690;6.184;2022-10-16T02:08:24;13.10;99.90
53053;DHT22;38934;52.690;6.184;2022-10-16T02:10:51;13.20;99.90
53053;DHT22;38934;52.690;6.184;2022-10-16T02:13:36;12.30;99.90
53053;DHT22;38934;52.690;6.184;2022-10-16T02:16:03;12.30;99.90
53053;DHT22;38934;52.690;6.184;2022-10-16T02:18:29;12.30;99.90
53053;DHT22;38934;52.690;6.184;2022-10-16T02:20:59;12.30;99.90
53053;DHT22;38934;52.690;6.184;2022-10-16T02:23:37;12.30;99.90
53053;DHT22;38934;52.690;6.184;2022-10-16T02:28:52;12.30;99.90
53053;DHT22;38934;52.690;6.184;2022-10-16T02:31:18;12.30;99.90
53053;DHT22;38934;52.690;6.184;2022-10-16T02:33:46;12.70;99.90
53053;DHT22;38934;52.690;6.184;2022-10-16T02:36:12;12.30;99.90
53053;DHT22;38934;52.690;6.184;2022-10-16T02:38:38;12.20;99.90
53053;DHT22;38934;52.690;6.184;2022-10-16T02:41:07;13.20;99.90
53053;DHT22;38934;52.690;6.184;2022-10-16T02:43:33;12.20;99.90
53053;DHT22;38934;52.690;6.184;2022-10-16T02:45:59;12.20;99.90
53053;DHT22;38934;52.690;6.184;2022-10-16T02:48:24;12.10;99.90
53053;DHT22;38934;52.690;6.184;2022-10-16T02:50:50;12.10;99.90
53053;DHT22;38934;52.690;6.184;2022-10-16T02:53:16;12.70;99.90
53053;DHT22;38934;52.690;6.184;2022-10-16T02:55:42;12.50;99.90
53053;DHT22;38934;52.690;6.184;2022-10-16T02:58:08;12.10;99.90
53053;DHT22;38934;52.690;6.184;2022-10-16T03:00:34;12.20;99.90
53053;DHT22;38934;52.690;6.184;2022-10-16T03:02:59;12.80;99.90
53053;DHT22;38934;52.690;6.184;2022-10-16T03:05:25;12.20;99.90
53053;DHT22;38934;52.690;6.184;2022-10-16T03:07:50;12.40;99.90
53053;DHT22;38934;52.690;6.184;2022-10-16T03:10:17;12.20;99.90
53053;DHT22;38934;52.690;6.184;2022-10-16T03:12:48;12.20;99.90
53053;DHT22;38934;52.690;6.184;2022-10-16T03:15:14;12.20;99.90
53053;DHT22;38934;52.690;6.184;2022-10-16T03:17:49;12.20;99.90
53053;DHT22;38934;52.690;6.184;2022-10-16T03:20:14;12.30;99.90
53053;DHT22;38934;52.690;6.184;2022-10-16T03:22:57;12.30;99.90
53053;DHT22;38934;52.690;6.184;2022-10-16T03:31:12;12.30;99.90
53053;DHT22;38934;52.690;6.184;2022-10-16T03:33:37;12.30;99.90
53053;DHT22;38934;52.690;6.184;2022-10-16T03:36:03;12.80;99.90
53053;DHT22;38934;52.690;6.184;2022-10-16T03:38:28;12.30;99.90
53053;DHT22;38934;52.690;6.184;2022-10-16T03:40:54;13.30;99.90
53053;DHT22;38934;52.690;6.184;2022-10-16T03:43:19;12.80;99.90
53053;DHT22;38934;52.690;6.184;2022-10-16T03:45:45;12.20;99.90
53053;DHT22;38934;52.690;6.184;2022-10-16T03:50:50;12.10;99.90
53053;DHT22;38934;52.690;6.184;2022-10-16T03:53:18;12.00;99.90
53053;DHT22;38934;52.690;6.184;2022-10-16T03:58:19;11.90;99.90
53053;DHT22;38934;52.690;6.184;2022-10-16T04:00:51;11.90;99.90
53053;DHT22;38934;52.690;6.184;2022-10-16T04:03:26;11.90;99.90
53053;DHT22;38934;52.690;6.184;2022-10-16T04:05:52;11.90;99.90
53053;DHT22;38934;52.690;6.184;2022-10-16T04:10:46;11.80;99.90
53053;DHT22;38934;52.690;6.184;2022-10-16T04:13:13;11.70;99.90
53053;DHT22;38934;52.690;6.184;2022-10-16T04:15:38;11.70;99.90
53053;DHT22;38934;52.690;6.184;2022-10-16T04:18:06;12.00;99.90
53053;DHT22;38934;52.690;6.184;2022-10-16T04:23:26;11.70;99.90
53053;DHT22;38934;52.690;6.184;2022-10-16T04:25:52;11.70;99.90
53053;DHT22;38934;52.690;6.184;2022-10-16T04:28:23;12.20;99.90
53053;DHT22;38934;52.690;6.184;2022-10-16T04:30:49;11.70;99.90
53053;DHT22;38934;52.690;6.184;2022-10-16T04:33:14;11.80;99.90
53053;DHT22;38934;52.690;6.184;2022-10-16T04:35:40;12.10;99.90
53053;DHT22;38934;52.690;6.184;2022-10-16T04:38:05;12.90;99.90
53053;DHT22;38934;52.690;6.184;2022-10-16T04:40:31;11.90;99.90
53053;DHT22;38934;52.690;6.184;2022-10-16T04:42:58;12.90;99.90
53053;DHT22;38934;52.690;6.184;2022-10-16T04:45:24;11.90;99.90
53053;DHT22;38934;52.690;6.184;2022-10-16T04:47:50;11.90;99.90
53053;DHT22;38934;52.690;6.184;2022-10-16T04:50:15;11.90;99.90
53053;DHT22;38934;52.690;6.184;2022-10-16T04:55:50;12.00;99.90
53053;DHT22;38934;52.690;6.184;2022-10-16T04:58:16;12.00;99.90
53053;DHT22;38934;52.690;6.184;2022-10-16T05:00:41;12.00;99.90
53053;DHT22;38934;52.690;6.184;2022-10-16T05:03:23;13.30;99.90
53053;DHT22;38934;52.690;6.184;2022-10-16T05:05:49;12.00;99.90
53053;DHT22;38934;52.690;6.184;2022-10-16T05:08:14;12.00;99.90
53053;DHT22;38934;52.690;6.184;2022-10-16T05:10:41;13.00;99.90
53053;DHT22;38934;52.690;6.184;2022-10-16T05:13:06;11.90;99.90
53053;DHT22;38934;52.690;6.184;2022-10-16T05:15:32;12.20;99.90
53053;DHT22;38934;52.690;6.184;2022-10-16T05:17:58;12.90;99.90
53053;DHT22;38934;52.690;6.184;2022-10-16T05:20:34;11.80;99.90
53053;DHT22;38934;52.690;6.184;2022-10-16T05:23:00;11.90;99.90
53053;DHT22;38934;52.690;6.184;2022-10-16T05:25:26;11.90;99.90
53053;DHT22;38934;52.690;6.184;2022-10-16T05:27:51;11.90;99.90
53053;DHT22;38934;52.690;6.184;2022-10-16T05:30:17;12.20;99.90
53053;DHT22;38934;52.690;6.184;2022-10-16T05:32:52;11.90;99.90
53053;DHT22;38934;52.690;6.184;2022-10-16T05:35:18;11.90;99.90
53053;DHT22;38934;52.690;6.184;2022-10-16T05:37:57;11.90;99.90
53053;DHT22;38934;52.690;6.184;2022-10-16T05:40:22;11.90;99.90
53053;DHT22;38934;52.690;6.184;2022-10-16T05:42:57;12.00;99.90
53053;DHT22;38934;52.690;6.184;2022-10-16T05:45:23;11.80;99.90
53053;DHT22;38934;52.690;6.184;2022-10-16T05:47:48;11.80;99.90
53053;DHT22;38934;52.690;6.184;2022-10-16T05:50:14;11.70;99.90
53053;DHT22;38934;52.690;6.184;2022-10-16T05:52:47;11.80;99.90
53053;DHT22;38934;52.690;6.184;2022-10-16T05:55:13;11.80;99.90
53053;DHT22;38934;52.690;6.184;2022-10-16T05:57:39;11.80;99.90
53053;DHT22;38934;52.690;6.184;2022-10-16T06:00:05;11.80;99.90
53053;DHT22;38934;52.690;6.184;2022-10-16T06:02:31;11.80;99.90
53053;DHT22;38934;52.690;6.184;2022-10-16T06:04:56;11.80;99.90
53053;DHT22;38934;52.690;6.184;2022-10-16T06:07:22;12.20;99.90
53053;DHT22;38934;52.690;6.184;2022-10-16T06:09:48;11.80;99.90
53053;DHT22;38934;52.690;6.184;2022-10-16T06:12:15;13.00;99.90
53053;DHT22;38934;52.690;6.184;2022-10-16T06:14:45;11.90;99.90
53053;DHT22;38934;52.690;6.184;2022-10-16T06:17:14;12.00;99.90
53053;DHT22;38934;52.690;6.184;2022-10-16T06:19:42;12.00;99.90
53053;DHT22;38934;52.690;6.184;2022-10-16T06:24:38;12.00;99.90
53053;DHT22;38934;52.690;6.184;2022-10-16T06:27:03;12.90;99.90
53053;DHT22;38934;52.690;6.184;2022-10-16T06:29:29;13.10;99.90
53053;DHT22;38934;52.690;6.184;2022-10-16T06:31:55;12.10;99.90
53053;DHT22;38934;52.690;6.184;2022-10-16T06:34:26;12.10;99.90
53053;DHT22;38934;52.690;6.184;2022-10-16T06:36:52;12.20;99.90
53053;DHT22;38934;52.690;6.184;2022-10-16T06:39:17;13.20;99.90
53053;DHT22;38934;52.690;6.184;2022-10-16T06:41:43;12.20;99.90
53053;DHT22;38934;52.690;6.184;2022-10-16T06:46:52;12.30;99.90
53053;DHT22;38934;52.690;6.184;2022-10-16T06:49:19;12.30;99.90
53053;DHT22;38934;52.690;6.184;2022-10-16T06:51:47;13.30;99.90
53053;DHT22;38934;52.690;6.184;2022-10-16T06:54:14;12.50;99.90
53053;DHT22;38934;52.690;6.184;2022-10-16T06:56:39;13.20;99.90
53053;DHT22;38934;52.690;6.184;2022-10-16T06:59:05;12.50;99.90
53053;DHT22;38934;52.690;6.184;2022-10-16T07:01:36;12.90;99.90
53053;DHT22;38934;52.690;6.184;2022-10-16T07:04:02;12.60;99.90
53053;DHT22;38934;52.690;6.184;2022-10-16T07:06:30;12.70;99.90
53053;DHT22;38934;52.690;6.184;2022-10-16T07:09:02;12.70;99.90
53053;DHT22;38934;52.690;6.184;2022-10-16T07:11:32;12.70;99.90
53053;DHT22;38934;52.690;6.184;2022-10-16T07:13:59;12.80;99.90
53053;DHT22;38934;52.690;6.184;2022-10-16T07:16:26;12.80;99.90
53053;DHT22;38934;52.690;6.184;2022-10-16T07:18:53;12.80;99.90
53053;DHT22;38934;52.690;6.184;2022-10-16T07:21:23;12.90;99.90
53053;DHT22;38934;52.690;6.184;2022-10-16T07:24:00;12.90;99.90
53053;DHT22;38934;52.690;6.184;2022-10-16T07:26:26;12.90;99.90
53053;DHT22;38934;52.690;6.184;2022-10-16T07:28:59;13.80;99.90
53053;DHT22;38934;52.690;6.184;2022-10-16T07:31:26;13.00;99.90
53053;DHT22;38934;52.690;6.184;2022-10-16T07:33:51;14.00;99.90
53053;DHT22;38934;52.690;6.184;2022-10-16T07:36:17;13.50;99.90
53053;DHT22;38934;52.690;6.184;2022-10-16T07:38:43;13.10;99.90
53053;DHT22;38934;52.690;6.184;2022-10-16T07:41:11;13.10;99.90
53053;DHT22;38934;52.690;6.184;2022-10-16T07:43:36;13.20;99.90
53053;DHT22;38934;52.690;6.184;2022-10-16T07:46:02;13.50;99.90
53053;DHT22;38934;52.690;6.184;2022-10-16T07:48:29;13.20;99.90
53053;DHT22;38934;52.690;6.184;2022-10-16T07:50:58;13.20;99.90
53053;DHT22;38934;52.690;6.184;2022-10-16T07:53:24;13.30;99.90
53053;DHT22;38934;52.690;6.184;2022-10-16T07:58:44;13.50;99.90
53053;DHT22;38934;52.690;6.184;2022-10-16T08:01:11;13.50;99.90
53053;DHT22;38934;52.690;6.184;2022-10-16T08:03:37;13.50;99.90
53053;DHT22;38934;52.690;6.184;2022-10-16T08:12:28;13.70;99.90
53053;DHT22;38934;52.690;6.184;2022-10-16T08:14:53;13.80;99.90
53053;DHT22;38934;52.690;6.184;2022-10-16T08:17:19;13.90;99.90
53053;DHT22;38934;52.690;6.184;2022-10-16T08:19:59;13.90;99.90
53053;DHT22;38934;52.690;6.184;2022-10-16T08:22:24;14.00;99.90
53053;DHT22;38934;52.690;6.184;2022-10-16T08:24:53;14.00;99.90
53053;DHT22;38934;52.690;6.184;2022-10-16T08:27:18;13.80;99.90
53053;DHT22;38934;52.690;6.184;2022-10-16T08:29:44;13.90;99.90
53053;DHT22;38934;52.690;6.184;2022-10-16T08:32:09;14.80;99.90
53053;DHT22;38934;52.690;6.184;2022-10-16T08:34:35;13.90;99.90
53053;DHT22;38934;52.690;6.184;2022-10-16T08:37:00;14.80;99.90
53053;DHT22;38934;52.690;6.184;2022-10-16T08:39:26;13.80;99.90
53053;DHT22;38934;52.690;6.184;2022-10-16T08:47:20;13.60;99.90
53053;DHT22;38934;52.690;6.184;2022-10-16T08:52:54;13.60;99.90
53053;DHT22;38934;52.690;6.184;2022-10-16T08:58:30;13.60;99.90
53053;DHT22;38934;52.690;6.184;2022-10-16T09:00:56;13.60;99.90
53053;DHT22;38934;52.690;6.184;2022-10-16T09:08:46;13.60;99.90
53053;DHT22;38934;52.690;6.184;2022-10-16T09:11:18;13.70;99.90
53053;DHT22;38934;52.690;6.184;2022-10-16T09:19:24;13.80;99.90
53053;DHT22;38934;52.690;6.184;2022-10-16T09:21:52;13.90;99.90
53053;DHT22;38934;52.690;6.184;2022-10-16T09:24:19;13.90;99.90
53053;DHT22;38934;52.690;6.184;2022-10-16T09:26:45;14.00;99.90
53053;DHT22;38934;52.690;6.184;2022-10-16T09:29:13;14.00;99.90
53053;DHT22;38934;52.690;6.184;2022-10-16T09:31:38;14.00;99.90
53053;DHT22;38934;52.690;6.184;2022-10-16T09:34:04;14.00;99.90
53053;DHT22;38934;52.690;6.184;2022-10-16T09:36:35;14.10;99.90
53053;DHT22;38934;52.690;6.184;2022-10-16T09:39:03;15.20;99.90
53053;DHT22;38934;52.690;6.184;2022-10-16T09:41:33;14.20;99.90
53053;DHT22;38934;52.690;6.184;2022-10-16T09:44:00;14.30;99.90
53053;DHT22;38934;52.690;6.184;2022-10-16T09:46:28;15.10;99.90
53053;DHT22;38934;52.690;6.184;2022-10-16T09:51:30;14.50;99.90
53053;DHT22;38934;52.690;6.184;2022-10-16T09:53:57;14.50;99.90
53053;DHT22;38934;52.690;6.184;2022-10-16T09:56:24;14.60;99.90
53053;DHT22;38934;52.690;6.184;2022-10-16T09:59:17;15.50;99.90
53053;DHT22;38934;52.690;6.184;2022-10-16T10:04:37;15.10;99.90
53053;DHT22;38934;52.690;6.184;2022-10-16T10:07:04;15.40;99.90
53053;DHT22;38934;52.690;6.184;2022-10-16T10:12:19;15.50;99.90
53053;DHT22;38934;52.690;6.184;2022-10-16T10:14:53;15.50;99.90
53053;DHT22;38934;52.690;6.184;2022-10-16T10:17:21;15.50;99.90
53053;DHT22;38934;52.690;6.184;2022-10-16T10:19:49;16.00;99.90
53053;DHT22;38934;52.690;6.184;2022-10-16T10:22:26;15.30;99.90
53053;DHT22;38934;52.690;6.184;2022-10-16T10:32:52;15.40;99.90
53053;DHT22;38934;52.690;6.184;2022-10-16T10:43:32;15.70;99.90
53053;DHT22;38934;52.690;6.184;2022-10-16T10:46:03;15.90;99.90
53053;DHT22;38934;52.690;6.184;2022-10-16T10:51:13;16.20;99.90
53053;DHT22;38934;52.690;6.184;2022-10-16T11:07:30;16.20;99.90
53053;DHT22;38934;52.690;6.184;2022-10-16T11:09:58;16.20;99.90
53053;DHT22;38934;52.690;6.184;2022-10-16T11:12:26;16.20;99.90
53053;DHT22;38934;52.690;6.184;2022-10-16T11:17:28;16.10;99.90
53053;DHT22;38934;52.690;6.184;2022-10-16T11:20:10;16.00;99.90
53053;DHT22;38934;52.690;6.184;2022-10-16T11:22:54;15.90;99.90
53053;DHT22;38934;52.690;6.184;2022-10-16T11:25:39;15.90;99.90
53053;DHT22;38934;52.690;6.184;2022-10-16T11:42:05;16.10;99.90
53053;DHT22;38934;52.690;6.184;2022-10-16T11:49:47;16.30;99.90
53053;DHT22;38934;52.690;6.184;2022-10-16T11:52:17;16.40;99.90
53053;DHT22;38934;52.690;6.184;2022-10-16T11:54:56;16.50;99.90
53053;DHT22;38934;52.690;6.184;2022-10-16T11:57:31;16.50;99.90
53053;DHT22;38934;52.690;6.184;2022-10-16T12:00:14;16.40;99.90
53053;DHT22;38934;52.690;6.184;2022-10-16T12:08:11;16.70;99.90
53053;DHT22;38934;52.690;6.184;2022-10-16T12:10:38;16.70;99.90
53053;DHT22;38934;52.690;6.184;2022-10-16T12:18:35;16.40;99.90
53053;DHT22;38934;52.690;6.184;2022-10-16T12:21:01;16.30;99.90
53053;DHT22;38934;52.690;6.184;2022-10-16T12:23:32;16.20;99.90
53053;DHT22;38934;52.690;6.184;2022-10-16T12:25:59;16.10;99.90
53053;DHT22;38934;52.690;6.184;2022-10-16T12:28:29;16.00;99.90
53053;DHT22;38934;52.690;6.184;2022-10-16T12:30:58;16.00;99.90
53053;DHT22;38934;52.690;6.184;2022-10-16T12:33:25;16.00;99.90
53053;DHT22;38934;52.690;6.184;2022-10-16T12:35:51;16.10;99.90
53053;DHT22;38934;52.690;6.184;2022-10-16T12:38:24;16.20;99.90
53053;DHT22;38934;52.690;6.184;2022-10-16T12:48:36;16.00;99.90
53053;DHT22;38934;52.690;6.184;2022-10-16T12:51:09;17.00;99.90
53053;DHT22;38934;52.690;6.184;2022-10-16T12:53:35;16.00;99.90
53053;DHT22;38934;52.690;6.184;2022-10-16T12:58:31;16.20;99.90
53053;DHT22;38934;52.690;6.184;2022-10-16T13:09:17;16.80;99.90
53053;DHT22;38934;52.690;6.184;2022-10-16T13:11:54;16.90;99.90
53053;DHT22;38934;52.690;6.184;2022-10-16T13:14:32;17.00;99.90
53053;DHT22;38934;52.690;6.184;2022-10-16T13:22:16;16.90;99.90
53053;DHT22;38934;52.690;6.184;2022-10-16T13:32:46;16.90;99.90
53053;DHT22;38934;52.690;6.184;2022-10-16T13:35:22;16.70;99.90
53053;DHT22;38934;52.690;6.184;2022-10-16T13:37:50;16.70;99.90
53053;DHT22;38934;52.690;6.184;2022-10-16T13:40:20;16.70;99.90
53053;DHT22;38934;52.690;6.184;2022-10-16T13:42:54;16.60;99.90
53053;DHT22;38934;52.690;6.184;2022-10-16T13:45:21;16.50;99.90
53053;DHT22;38934;52.690;6.184;2022-10-16T13:47:47;16.40;99.90
53053;DHT22;38934;52.690;6.184;2022-10-16T13:50:14;16.50;99.90
53053;DHT22;38934;52.690;6.184;2022-10-16T13:52:40;16.40;99.90
53053;DHT22;38934;52.690;6.184;2022-10-16T13:55:16;16.40;99.90
53053;DHT22;38934;52.690;6.184;2022-10-16T13:57:46;16.40;99.90
53053;DHT22;38934;52.690;6.184;2022-10-16T14:00:25;16.40;99.90
53053;DHT22;38934;52.690;6.184;2022-10-16T14:03:15;16.40;99.90
53053;DHT22;38934;52.690;6.184;2022-10-16T14:05:47;16.30;99.90
53053;DHT22;38934;52.690;6.184;2022-10-16T14:08:14;16.30;99.90
53053;DHT22;38934;52.690;6.184;2022-10-16T14:10:41;16.20;99.90
53053;DHT22;38934;52.690;6.184;2022-10-16T14:13:07;16.20;99.90
53053;DHT22;38934;52.690;6.184;2022-10-16T14:15:33;16.20;99.90
53053;DHT22;38934;52.690;6.184;2022-10-16T14:17:59;16.80;99.90
53053;DHT22;38934;52.690;6.184;2022-10-16T14:20:27;16.20;99.90
53053;DHT22;38934;52.690;6.184;2022-10-16T14:25:29;16.20;99.90
53053;DHT22;38934;52.690;6.184;2022-10-16T14:30:25;16.10;99.90
53053;DHT22;38934;52.690;6.184;2022-10-16T14:35:29;16.10;99.90
53053;DHT22;38934;52.690;6.184;2022-10-16T14:37:55;16.00;99.90
53053;DHT22;38934;52.690;6.184;2022-10-16T14:40:23;16.00;99.90
53053;DHT22;38934;52.690;6.184;2022-10-16T14:42:49;16.00;99.90
53053;DHT22;38934;52.690;6.184;2022-10-16T14:45:18;16.00;99.90
53053;DHT22;38934;52.690;6.184;2022-10-16T14:47:48;16.00;99.90
53053;DHT22;38934;52.690;6.184;2022-10-16T14:50:15;15.90;99.90
53053;DHT22;38934;52.690;6.184;2022-10-16T14:52:40;16.00;99.90
53053;DHT22;38934;52.690;6.184;2022-10-16T14:55:07;15.90;99.90
53053;DHT22;38934;52.690;6.184;2022-10-16T14:57:33;15.90;99.90
53053;DHT22;38934;52.690;6.184;2022-10-16T15:00:01;15.90;99.90
53053;DHT22;38934;52.690;6.184;2022-10-16T15:02:38;15.90;99.90
53053;DHT22;38934;52.690;6.184;2022-10-16T15:05:46;15.90;99.90
53053;DHT22;38934;52.690;6.184;2022-10-16T15:13:49;15.70;99.90
53053;DHT22;38934;52.690;6.184;2022-10-16T15:16:15;15.60;99.90
53053;DHT22;38934;52.690;6.184;2022-10-16T15:18:46;15.90;99.90
53053;DHT22;38934;52.690;6.184;2022-10-16T15:21:25;15.80;99.90
53053;DHT22;38934;52.690;6.184;2022-10-16T15:24:00;15.50;99.90
53053;DHT22;38934;52.690;6.184;2022-10-16T15:26:37;15.50;99.90
53053;DHT22;38934;52.690;6.184;2022-10-16T15:29:05;15.40;99.90
53053;DHT22;38934;52.690;6.184;2022-10-16T15:31:31;15.40;99.90
53053;DHT22;38934;52.690;6.184;2022-10-16T15:33:59;15.30;99.90
53053;DHT22;38934;52.690;6.184;2022-10-16T15:36:30;15.30;99.90
53053;DHT22;38934;52.690;6.184;2022-10-16T15:41:53;15.20;99.90
53053;DHT22;38934;52.690;6.184;2022-10-16T15:47:30;15.10;99.90
53053;DHT22;38934;52.690;6.184;2022-10-16T15:52:33;14.90;99.90
53053;DHT22;38934;52.690;6.184;2022-10-16T15:54:58;14.90;99.90
53053;DHT22;38934;52.690;6.184;2022-10-16T15:57:24;14.80;99.90
53053;DHT22;38934;52.690;6.184;2022-10-16T15:59:49;15.00;99.90
53053;DHT22;38934;52.690;6.184;2022-10-16T16:02:15;15.60;99.90
53053;DHT22;38934;52.690;6.184;2022-10-16T16:04:41;14.70;99.90
53053;DHT22;38934;52.690;6.184;2022-10-16T16:07:06;14.60;99.90
53053;DHT22;38934;52.690;6.184;2022-10-16T16:09:39;14.50;99.90
53053;DHT22;38934;52.690;6.184;2022-10-16T16:12:07;14.50;99.90
53053;DHT22;38934;52.690;6.184;2022-10-16T16:14:32;14.50;99.90
53053;DHT22;38934;52.690;6.184;2022-10-16T16:17:00;14.40;99.90
53053;DHT22;38934;52.690;6.184;2022-10-16T16:19:27;14.40;99.90
53053;DHT22;38934;52.690;6.184;2022-10-16T16:21:52;13.70;99.90
53053;DHT22;38934;52.690;6.184;2022-10-16T16:24:21;14.20;99.90
53053;DHT22;38934;52.690;6.184;2022-10-16T16:26:49;13.90;99.90
53053;DHT22;38934;52.690;6.184;2022-10-16T16:29:14;14.00;99.90
53053;DHT22;38934;52.690;6.184;2022-10-16T16:31:41;14.00;99.90
53053;DHT22;38934;52.690;6.184;2022-10-16T16:34:07;14.00;99.90
53053;DHT22;38934;52.690;6.184;2022-10-16T16:36:33;13.40;99.90
53053;DHT22;38934;52.690;6.184;2022-10-16T16:38:59;13.80;99.90
53053;DHT22;38934;52.690;6.184;2022-10-16T16:41:28;13.70;99.90
53053;DHT22;38934;52.690;6.184;2022-10-16T16:43:55;13.70;99.90
53053;DHT22;38934;52.690;6.184;2022-10-16T16:46:21;13.80;99.90
53053;DHT22;38934;52.690;6.184;2022-10-16T16:48:46;14.00;99.90
53053;DHT22;38934;52.690;6.184;2022-10-16T16:51:13;13.80;99.90
53053;DHT22;38934;52.690;6.184;2022-10-16T16:53:41;13.80;99.90
53053;DHT22;38934;52.690;6.184;2022-10-16T16:56:11;13.40;99.90
53053;DHT22;38934;52.690;6.184;2022-10-16T16:58:38;13.40;99.90
53053;DHT22;38934;52.690;6.184;2022-10-16T17:01:03;13.30;99.90
53053;DHT22;38934;52.690;6.184;2022-10-16T17:03:30;13.30;99.90
53053;DHT22;38934;52.690;6.184;2022-10-16T17:06:02;13.70;99.90
53053;DHT22;38934;52.690;6.184;2022-10-16T17:08:28;13.10;99.90
53053;DHT22;38934;52.690;6.184;2022-10-16T17:10:54;13.50;99.90
53053;DHT22;38934;52.690;6.184;2022-10-16T17:13:21;13.00;99.90
53053;DHT22;38934;52.690;6.184;2022-10-16T17:15:47;13.90;99.90
53053;DHT22;38934;52.690;6.184;2022-10-16T17:18:13;12.70;99.90
53053;DHT22;38934;52.690;6.184;2022-10-16T17:20:38;12.80;99.90
53053;DHT22;38934;52.690;6.184;2022-10-16T17:23:04;12.70;99.90
53053;DHT22;38934;52.690;6.184;2022-10-16T17:25:29;12.70;99.90
53053;DHT22;38934;52.690;6.184;2022-10-16T17:30:25;12.50;99.90
53053;DHT22;38934;52.690;6.184;2022-10-16T17:32:51;12.90;99.90
53053;DHT22;38934;52.690;6.184;2022-10-16T17:35:17;12.50;99.90
53053;DHT22;38934;52.690;6.184;2022-10-16T17:37:43;12.50;99.90
53053;DHT22;38934;52.690;6.184;2022-10-16T17:40:09;12.40;99.90
53053;DHT22;38934;52.690;6.184;2022-10-16T17:42:37;12.40;99.90
53053;DHT22;38934;52.690;6.184;2022-10-16T17:45:02;12.40;99.90
53053;DHT22;38934;52.690;6.184;2022-10-16T17:47:28;12.40;99.90
53053;DHT22;38934;52.690;6.184;2022-10-16T17:49:53;12.40;99.90
53053;DHT22;38934;52.690;6.184;2022-10-16T17:52:32;12.30;99.90
53053;DHT22;38934;52.690;6.184;2022-10-16T17:54:57;12.40;99.90
53053;DHT22;38934;52.690;6.184;2022-10-16T17:57:23;12.60;99.90
53053;DHT22;38934;52.690;6.184;2022-10-16T17:59:49;12.40;99.90
53053;DHT22;38934;52.690;6.184;2022-10-16T18:02:14;12.30;99.90
53053;DHT22;38934;52.690;6.184;2022-10-16T18:04:41;12.30;99.90
53053;DHT22;38934;52.690;6.184;2022-10-16T18:07:07;12.30;99.90
53053;DHT22;38934;52.690;6.184;2022-10-16T18:09:32;12.30;99.90
53053;DHT22;38934;52.690;6.184;2022-10-16T18:11:58;12.30;99.90
53053;DHT22;38934;52.690;6.184;2022-10-16T18:14:27;12.30;99.90
53053;DHT22;38934;52.690;6.184;2022-10-16T18:16:54;12.30;99.90
53053;DHT22;38934;52.690;6.184;2022-10-16T18:19:21;12.30;99.90
53053;DHT22;38934;52.690;6.184;2022-10-16T18:21:47;12.30;99.90
53053;DHT22;38934;52.690;6.184;2022-10-16T18:24:20;12.90;99.90
53053;DHT22;38934;52.690;6.184;2022-10-16T18:26:48;12.30;99.90
53053;DHT22;38934;52.690;6.184;2022-10-16T18:29:18;12.30;99.90
53053;DHT22;38934;52.690;6.184;2022-10-16T18:31:44;12.20;99.90
53053;DHT22;38934;52.690;6.184;2022-10-16T18:34:11;12.20;99.90
53053;DHT22;38934;52.690;6.184;2022-10-16T18:36:37;12.20;99.90
53053;DHT22;38934;52.690;6.184;2022-10-16T18:39:04;12.20;99.90
53053;DHT22;38934;52.690;6.184;2022-10-16T18:41:34;12.20;99.90
53053;DHT22;38934;52.690;6.184;2022-10-16T18:44:00;12.20;99.90
53053;DHT22;38934;52.690;6.184;2022-10-16T18:46:26;12.20;99.90
53053;DHT22;38934;52.690;6.184;2022-10-16T18:48:52;12.10;99.90
53053;DHT22;38934;52.690;6.184;2022-10-16T18:51:20;12.10;99.90
53053;DHT22;38934;52.690;6.184;2022-10-16T18:53:47;12.10;99.90
53053;DHT22;38934;52.690;6.184;2022-10-16T18:56:14;12.10;99.90
53053;DHT22;38934;52.690;6.184;2022-10-16T18:58:40;12.10;99.90
53053;DHT22;38934;52.690;6.184;2022-10-16T19:01:08;12.50;99.90
53053;DHT22;38934;52.690;6.184;2022-10-16T19:03:35;12.00;99.90
53053;DHT22;38934;52.690;6.184;2022-10-16T19:06:02;12.10;99.90
53053;DHT22;38934;52.690;6.184;2022-10-16T19:08:28;12.10;99.90
53053;DHT22;38934;52.690;6.184;2022-10-16T19:11:01;12.70;99.90